Nioaque, Brazil
Current Conditions -  °F | °C
As of 7:00 AM on Monday 26 Jan 2015 (Local Time) from SBCG Reporting Station
Broken Clouds Broken Clouds  
Wind Chill: 72°   Ceiling: 10000
Heat Index: 72°   Visibility: 6mi
Dew Point: 68°   Wind: 3mph
Humidity: 88%   Direction: 10°N
Pressure: 29.94"   Gusts: NA
Location:  21.14°S, 55.83°W
Report Text: SBCG 261000Z 01003KT 9999 FEW030 BKN100 22/20 Q1014
Loading
Personal Weather Stations






























Interactive Weather Map New forecast layout! Learn more

10-Day Weather Forecast

Advertisements
Track Severe Weather on mobile